(°C)
11°
11°
11°
11°
10°
(°C)
SW
SW
SSW
SSW
S
S
SSW
(km/h)
10-16
9-14
8-12
7-12
7-10
6-10
6-8
(mm)
0
0
0
0
0
0
0
(%)
3
1
2
2
2
2
2

Wysokość słońca

/ 32.2°
sun-icon
UV 1
06:06
18:25
Ubywający Księżyc garbaty (198°)
19:11
07:20

METAR dla 51.82°N 39.23°E (UUOO)

Czas Warunki Temperatura/
Punkt rosy
Wiatr Widzialność Pogoda Chmury Ciśn. atm. Zmień Surowy
MVFR 11°C / 5°C 210º variable 160º to 250º 4kt >10km - Broken Clouds 2200ft 1011 No Significant change. Runway 12: Wet or puddles, 51-100% contamination with 1mm, friction coefficient 0.55. UUOO 221100Z 21002MPS 160V250 9999 BKN022 11/05 Q1011 R12/290155 NOSIG RMK QFE745
MVFR 10°C / 6°C 230º variable 190º to 260º 4kt >10km - Broken Clouds 2800ft 1011 No Significant change. Runway 12: Wet or puddles, 51-100% contamination with 1mm, friction coefficient 0.55. UUOO 221030Z 23002MPS 190V260 9999 BKN028 10/06 Q1011 R12/290155 NOSIG RMK QFE744
MVFR 10°C / 5°C 250º 6kt >10km - Broken Clouds 2400ft 1011 No Significant change. Runway 12: Wet or puddles, 51-100% contamination with 1mm, friction coefficient 0.55. UUOO 221000Z 25003MPS 9999 BKN024 10/05 Q1011 R12/290155 NOSIG RMK QFE744
MVFR 10°C / 6°C 250º 6kt >10km - Broken Clouds 2800ft 1011 No Significant change. Runway 12: Wet or puddles, 51-100% contamination with 1mm, friction coefficient 0.55. UUOO 220930Z 25003MPS 9999 BKN028 10/06 Q1011 R12/290155 NOSIG RMK QFE744
MVFR 10°C / 6°C 250º 4kt >10km - Broken Clouds 2100ft 1011 No Significant change. Runway 12: Wet or puddles, 51-100% contamination with 1mm, friction coefficient 0.55. UUOO 220900Z 25002MPS 9999 BKN021 10/06 Q1011 R12/290155 NOSIG RMK QFE744
MVFR 10°C / 6°C 250º 6kt >10km - Broken Clouds 3000ft 1011 No Significant change. Runway 12: Wet or puddles, 51-100% contamination with 1mm, friction coefficient 0.55. UUOO 220830Z 25003MPS 9999 BKN030 10/06 Q1011 R12/290155 NOSIG RMK QFE744
VFR 10°C / 7°C variable 2kt >10km - Clouds and Visibility OK 1011 No Significant change. Runway 12: Wet or puddles, 51-100% contamination with 1mm, friction coefficient 0.55. UUOO 220800Z VRB01MPS CAVOK 10/07 Q1011 R12/290155 NOSIG RMK QFE744
IFR 9°C / 7°C 270º variable 210º to 300º 4kt >10km Light Rain 1.00mm precipitation Vertical Visibility of 0ft. 1011 Temporary: Broken Clouds 400ft. RMK QFE744 . Runway 12: Wet or puddles, 51-100% contamination with 1mm, friction coefficient 0.55. UUOO 220730Z 27002MPS 210V300 9999 -RA BKN007 09/07 Q1011 R12/290155 TEMPO BKN004 RMK QFE744
MVFR 9°C / 7°C 260º 6kt >10km Light Rain 1.00mm precipitation Vertical Visibility of 0ft. 1011 Temporary: Broken Clouds 400ft. RMK QFE744 . Runway 12: Wet or puddles, 51-100% contamination with 1mm, friction coefficient 0.55. UUOO 220700Z 26003MPS 9999 -RA BKN010 09/07 Q1011 R12/290155 TEMPO BKN004 RMK QFE744
VFR 8°C / 7°C 270º 4kt >10km Light Rain 1.00mm precipitation Vertical Visibility of 0ft. 1011 Temporary: Broken Clouds 400ft. RMK QFE744 . Runway 12: Wet or puddles, 51-100% contamination with 1mm, friction coefficient 0.55. UUOO 220630Z 27002MPS 9999 -RA NSC 08/07 Q1011 R12/290155 TEMPO BKN004 RMK QFE744
VFR 8°C / 7°C 250º 4kt 9000m Light Rain 1.00mm precipitation Vertical Visibility of 0ft. 1011 Temporary: Broken Clouds 400ft. RMK QFE744 . Runway 12: Damp, 51-100% contamination with <1mm, friction coefficient 0.60. UUOO 220600Z 25002MPS 9000 -RA NSC 08/07 Q1011 R12/190060 TEMPO BKN004 RMK QFE744
VFR 8°C / 7°C 260º 4kt >10km - Broken Clouds 3900ft 1010 Temporary: Broken Clouds 400ft. RMK QFE744 . Runway 30: Damp, 51-100% contamination with <1mm, friction coefficient 0.60. UUOO 220530Z 26002MPS 9999 BKN039 08/07 Q1010 R30/190060 TEMPO BKN004 RMK QFE744
VFR 8°C / 6°C 260º 4kt >10km - Broken Clouds 3300ft 1010 No Significant change. Runway 30: Damp, 51-100% contamination with <1mm, friction coefficient 0.60. UUOO 220500Z 26002MPS 9999 BKN033 08/06 Q1010 R30/190060 NOSIG RMK QFE744
VFR 8°C / 7°C 280º 4kt >10km - Broken Clouds 3300ft 1010 No Significant change. Runway 30: Damp, 51-100% contamination with <1mm, friction coefficient 0.60. UUOO 220430Z 28002MPS 9999 BKN033 08/07 Q1010 R30/190060 NOSIG RMK QFE744
MVFR 7°C / 7°C 280º 6kt >10km - Overcast 2600ft 1010 No Significant change. Runway 30: Damp, 51-100% contamination with <1mm, friction coefficient 0.60. UUOO 220400Z 28003MPS 9999 OVC026 07/07 Q1010 R30/190060 NOSIG RMK QFE744
MVFR 7°C / 6°C 260º 6kt >10km - Overcast 2700ft 1010 No Significant change. Runway 30: Damp, 51-100% contamination with <1mm, friction coefficient 0.60. UUOO 220330Z 26003MPS 9999 OVC027 07/06 Q1010 R30/190060 NOSIG RMK QFE744
MVFR 8°C / 6°C 270º 6kt >10km - Overcast 2200ft 1010 No Significant change. Runway 30: Damp, 51-100% contamination with <1mm, friction coefficient 0.60. UUOO 220300Z 27003MPS 9999 OVC022 08/06 Q1010 R30/190060 NOSIG RMK QFE744
MVFR 8°C / 7°C 280º 4kt >10km - Overcast 2600ft 1010 No Significant change. Runway 30: Wet or puddles, 51-100% contamination with 1mm, friction coefficient 0.55. UUOO 220230Z 28002MPS 9999 OVC026 08/07 Q1010 R30/290155 NOSIG RMK QFE744
MVFR 9°C / 7°C 270º 4kt >10km - Overcast 1600ft 1010 No Significant change. Runway 30: Wet or puddles, 51-100% contamination with 1mm, friction coefficient 0.55. UUOO 212330Z 27002MPS 9999 OVC016 09/07 Q1010 R30/290155 NOSIG RMK QFE744
MVFR 9°C / 8°C 290º 8kt >10km - Overcast 1200ft 1010 No Significant change. Runway 30: Wet or puddles, 51-100% contamination with 1mm, friction coefficient 0.55. UUOO 212300Z 29004MPS 9999 OVC012 09/08 Q1010 R30/290155 NOSIG RMK QFE744
MVFR 9°C / 8°C 280º 6kt >10km - Overcast 1400ft 1010 No Significant change. Runway 30: Wet or puddles, 51-100% contamination with 1mm, friction coefficient 0.55. UUOO 212230Z 28003MPS 9999 OVC014 09/08 Q1010 R30/290155 NOSIG RMK QFE744
MVFR 9°C / 9°C 280º 4kt >10km - Overcast 2700ft 1010 No Significant change. Runway 30: Wet or puddles, 51-100% contamination with 1mm, friction coefficient 0.55. UUOO 212200Z 28002MPS 9999 OVC027 09/09 Q1010 R30/290155 NOSIG RMK QFE744
MVFR 10°C / 9°C 280º 4kt >10km - Overcast 2500ft 1010 No Significant change. Runway 30: Wet or puddles, 51-100% contamination with 1mm, friction coefficient 0.55. UUOO 212130Z 28002MPS 9999 OVC025 10/09 Q1010 R30/290155 NOSIG RMK QFE744
MVFR 10°C / 9°C 280º 4kt >10km - Overcast 1300ft 1010 No Significant change. Runway 30: Wet or puddles, 51-100% contamination with 1mm, friction coefficient 0.55. UUOO 212100Z 28002MPS 9999 OVC013 10/09 Q1010 R30/290155 NOSIG RMK QFE744

MVFR

11°C / 5°C

[Więcej]
Wiatr 210º variable 160º to 250º 4kt
Widzialność >10km
Pogoda -
Chmury Broken Clouds 2200ft
Ciśn. atm. 1011
Zmień No Significant change. Runway 12: Wet or puddles, 51-100% contamination with 1mm, friction coefficient 0.55.
Surowy UUOO 221100Z 21002MPS 160V250 9999 BKN022 11/05 Q1011 R12/290155 NOSIG RMK QFE745

MVFR

10°C / 6°C

[Więcej]
Wiatr 230º variable 190º to 260º 4kt
Widzialność >10km
Pogoda -
Chmury Broken Clouds 2800ft
Ciśn. atm. 1011
Zmień No Significant change. Runway 12: Wet or puddles, 51-100% contamination with 1mm, friction coefficient 0.55.
Surowy UUOO 221030Z 23002MPS 190V260 9999 BKN028 10/06 Q1011 R12/290155 NOSIG RMK QFE744

MVFR

10°C / 5°C

[Więcej]
Wiatr 250º 6kt
Widzialność >10km
Pogoda -
Chmury Broken Clouds 2400ft
Ciśn. atm. 1011
Zmień No Significant change. Runway 12: Wet or puddles, 51-100% contamination with 1mm, friction coefficient 0.55.
Surowy UUOO 221000Z 25003MPS 9999 BKN024 10/05 Q1011 R12/290155 NOSIG RMK QFE744

MVFR

10°C / 6°C

[Więcej]
Wiatr 250º 6kt
Widzialność >10km
Pogoda -
Chmury Broken Clouds 2800ft
Ciśn. atm. 1011
Zmień No Significant change. Runway 12: Wet or puddles, 51-100% contamination with 1mm, friction coefficient 0.55.
Surowy UUOO 220930Z 25003MPS 9999 BKN028 10/06 Q1011 R12/290155 NOSIG RMK QFE744

MVFR

10°C / 6°C

[Więcej]
Wiatr 250º 4kt
Widzialność >10km
Pogoda -
Chmury Broken Clouds 2100ft
Ciśn. atm. 1011
Zmień No Significant change. Runway 12: Wet or puddles, 51-100% contamination with 1mm, friction coefficient 0.55.
Surowy UUOO 220900Z 25002MPS 9999 BKN021 10/06 Q1011 R12/290155 NOSIG RMK QFE744

MVFR

10°C / 6°C

[Więcej]
Wiatr 250º 6kt
Widzialność >10km
Pogoda -
Chmury Broken Clouds 3000ft
Ciśn. atm. 1011
Zmień No Significant change. Runway 12: Wet or puddles, 51-100% contamination with 1mm, friction coefficient 0.55.
Surowy UUOO 220830Z 25003MPS 9999 BKN030 10/06 Q1011 R12/290155 NOSIG RMK QFE744

VFR

10°C / 7°C

[Więcej]
Wiatr variable 2kt
Widzialność >10km
Pogoda -
Chmury Clouds and Visibility OK
Ciśn. atm. 1011
Zmień No Significant change. Runway 12: Wet or puddles, 51-100% contamination with 1mm, friction coefficient 0.55.
Surowy UUOO 220800Z VRB01MPS CAVOK 10/07 Q1011 R12/290155 NOSIG RMK QFE744

IFR

9°C / 7°C

[Więcej]
Wiatr 270º variable 210º to 300º 4kt
Widzialność >10km
Pogoda Light Rain 1.00mm precipitation
Chmury Vertical Visibility of 0ft.
Ciśn. atm. 1011
Zmień Temporary: Broken Clouds 400ft. RMK QFE744 . Runway 12: Wet or puddles, 51-100% contamination with 1mm, friction coefficient 0.55.
Surowy UUOO 220730Z 27002MPS 210V300 9999 -RA BKN007 09/07 Q1011 R12/290155 TEMPO BKN004 RMK QFE744

MVFR

9°C / 7°C

[Więcej]
Wiatr 260º 6kt
Widzialność >10km
Pogoda Light Rain 1.00mm precipitation
Chmury Vertical Visibility of 0ft.
Ciśn. atm. 1011
Zmień Temporary: Broken Clouds 400ft. RMK QFE744 . Runway 12: Wet or puddles, 51-100% contamination with 1mm, friction coefficient 0.55.
Surowy UUOO 220700Z 26003MPS 9999 -RA BKN010 09/07 Q1011 R12/290155 TEMPO BKN004 RMK QFE744

VFR

8°C / 7°C

[Więcej]
Wiatr 270º 4kt
Widzialność >10km
Pogoda Light Rain 1.00mm precipitation
Chmury Vertical Visibility of 0ft.
Ciśn. atm. 1011
Zmień Temporary: Broken Clouds 400ft. RMK QFE744 . Runway 12: Wet or puddles, 51-100% contamination with 1mm, friction coefficient 0.55.
Surowy UUOO 220630Z 27002MPS 9999 -RA NSC 08/07 Q1011 R12/290155 TEMPO BKN004 RMK QFE744

VFR

8°C / 7°C

[Więcej]
Wiatr 250º 4kt
Widzialność 9000m
Pogoda Light Rain 1.00mm precipitation
Chmury Vertical Visibility of 0ft.
Ciśn. atm. 1011
Zmień Temporary: Broken Clouds 400ft. RMK QFE744 . Runway 12: Damp, 51-100% contamination with <1mm, friction coefficient 0.60.
Surowy UUOO 220600Z 25002MPS 9000 -RA NSC 08/07 Q1011 R12/190060 TEMPO BKN004 RMK QFE744

VFR

8°C / 7°C

[Więcej]
Wiatr 260º 4kt
Widzialność >10km
Pogoda -
Chmury Broken Clouds 3900ft
Ciśn. atm. 1010
Zmień Temporary: Broken Clouds 400ft. RMK QFE744 . Runway 30: Damp, 51-100% contamination with <1mm, friction coefficient 0.60.
Surowy UUOO 220530Z 26002MPS 9999 BKN039 08/07 Q1010 R30/190060 TEMPO BKN004 RMK QFE744

VFR

8°C / 6°C

[Więcej]
Wiatr 260º 4kt
Widzialność >10km
Pogoda -
Chmury Broken Clouds 3300ft
Ciśn. atm. 1010
Zmień No Significant change. Runway 30: Damp, 51-100% contamination with <1mm, friction coefficient 0.60.
Surowy UUOO 220500Z 26002MPS 9999 BKN033 08/06 Q1010 R30/190060 NOSIG RMK QFE744

VFR

8°C / 7°C

[Więcej]
Wiatr 280º 4kt
Widzialność >10km
Pogoda -
Chmury Broken Clouds 3300ft
Ciśn. atm. 1010
Zmień No Significant change. Runway 30: Damp, 51-100% contamination with <1mm, friction coefficient 0.60.
Surowy UUOO 220430Z 28002MPS 9999 BKN033 08/07 Q1010 R30/190060 NOSIG RMK QFE744

MVFR

7°C / 7°C

[Więcej]
Wiatr 280º 6kt
Widzialność >10km
Pogoda -
Chmury Overcast 2600ft
Ciśn. atm. 1010
Zmień No Significant change. Runway 30: Damp, 51-100% contamination with <1mm, friction coefficient 0.60.
Surowy UUOO 220400Z 28003MPS 9999 OVC026 07/07 Q1010 R30/190060 NOSIG RMK QFE744

MVFR

7°C / 6°C

[Więcej]
Wiatr 260º 6kt
Widzialność >10km
Pogoda -
Chmury Overcast 2700ft
Ciśn. atm. 1010
Zmień No Significant change. Runway 30: Damp, 51-100% contamination with <1mm, friction coefficient 0.60.
Surowy UUOO 220330Z 26003MPS 9999 OVC027 07/06 Q1010 R30/190060 NOSIG RMK QFE744

MVFR

8°C / 6°C

[Więcej]
Wiatr 270º 6kt
Widzialność >10km
Pogoda -
Chmury Overcast 2200ft
Ciśn. atm. 1010
Zmień No Significant change. Runway 30: Damp, 51-100% contamination with <1mm, friction coefficient 0.60.
Surowy UUOO 220300Z 27003MPS 9999 OVC022 08/06 Q1010 R30/190060 NOSIG RMK QFE744

MVFR

8°C / 7°C

[Więcej]
Wiatr 280º 4kt
Widzialność >10km
Pogoda -
Chmury Overcast 2600ft
Ciśn. atm. 1010
Zmień No Significant change. Runway 30: Wet or puddles, 51-100% contamination with 1mm, friction coefficient 0.55.
Surowy UUOO 220230Z 28002MPS 9999 OVC026 08/07 Q1010 R30/290155 NOSIG RMK QFE744

MVFR

9°C / 7°C

[Więcej]
Wiatr 270º 4kt
Widzialność >10km
Pogoda -
Chmury Overcast 1600ft
Ciśn. atm. 1010
Zmień No Significant change. Runway 30: Wet or puddles, 51-100% contamination with 1mm, friction coefficient 0.55.
Surowy UUOO 212330Z 27002MPS 9999 OVC016 09/07 Q1010 R30/290155 NOSIG RMK QFE744

MVFR

9°C / 8°C

[Więcej]
Wiatr 290º 8kt
Widzialność >10km
Pogoda -
Chmury Overcast 1200ft
Ciśn. atm. 1010
Zmień No Significant change. Runway 30: Wet or puddles, 51-100% contamination with 1mm, friction coefficient 0.55.
Surowy UUOO 212300Z 29004MPS 9999 OVC012 09/08 Q1010 R30/290155 NOSIG RMK QFE744

MVFR

9°C / 8°C

[Więcej]
Wiatr 280º 6kt
Widzialność >10km
Pogoda -
Chmury Overcast 1400ft
Ciśn. atm. 1010
Zmień No Significant change. Runway 30: Wet or puddles, 51-100% contamination with 1mm, friction coefficient 0.55.
Surowy UUOO 212230Z 28003MPS 9999 OVC014 09/08 Q1010 R30/290155 NOSIG RMK QFE744

MVFR

9°C / 9°C

[Więcej]
Wiatr 280º 4kt
Widzialność >10km
Pogoda -
Chmury Overcast 2700ft
Ciśn. atm. 1010
Zmień No Significant change. Runway 30: Wet or puddles, 51-100% contamination with 1mm, friction coefficient 0.55.
Surowy UUOO 212200Z 28002MPS 9999 OVC027 09/09 Q1010 R30/290155 NOSIG RMK QFE744

MVFR

10°C / 9°C

[Więcej]
Wiatr 280º 4kt
Widzialność >10km
Pogoda -
Chmury Overcast 2500ft
Ciśn. atm. 1010
Zmień No Significant change. Runway 30: Wet or puddles, 51-100% contamination with 1mm, friction coefficient 0.55.
Surowy UUOO 212130Z 28002MPS 9999 OVC025 10/09 Q1010 R30/290155 NOSIG RMK QFE744

MVFR

10°C / 9°C

[Więcej]
Wiatr 280º 4kt
Widzialność >10km
Pogoda -
Chmury Overcast 1300ft
Ciśn. atm. 1010
Zmień No Significant change. Runway 30: Wet or puddles, 51-100% contamination with 1mm, friction coefficient 0.55.
Surowy UUOO 212100Z 28002MPS 9999 OVC013 10/09 Q1010 R30/290155 NOSIG RMK QFE744

TAF dla 51.82°N 39.23°E (UUOO)

From till


From till Wind 270º 6kt. Visibility 10km or more. Broken Clouds 1600ft.
Temporarly from till Broken Clouds 700ft. Broken Clouds 1600ft.

Surowy: TAF UUOO 220800Z 2209/2218 27003MPS 9999 BKN016 TEMPO 2210/2218 BKN007 BKN016CB

Aktualne zdjęcia satelitarne i zdjęcia opadów deszczu dla 51.82°N 39.23°E

Wskaźnik lokalizacji znajduje się na 51.82°N 39.23°E. [Więcej]

Obraz satelitarny w czasie rzeczywistym łączy światło widzialne w ciągu dnia z promieniowaniem podczerwonym w nocy. W nocy obraz nie jest ciemny, ponieważ promieniowanie podczerwone może wykrywać różnice temperatur. Niestety niskie chmury i mgłę trudno odróżnić od temperatury gruntu, przez co mogą być prawie niewidoczne w nocy. Zdjęcia satelitarne Meteosat dla Europy są aktualizowane w czasie rzeczywistym co 5 minut. Obrazy GOES-16/GOES-17 (Ameryka Północna i Południowa) oraz Himawari (Azja) są aktualizowane co 10 minut.

Prawa autorskie 2021 EUMETSAT / meteoblue. / Prawa autorskie 2021 meteoblue

Radar i prognoza opadów na teraz dla 51.82°N 39.23°E

Mżawka
Lekki
Umiarkowane
Ulewne
Bardzo ciężkie
Grad

Wskaźnik lokalizacji jest umieszczony na 51.82°N 39.23°E. Animacja przedstawia radar opadów dla ostatniej godziny, jak również 1h prognozę pogody. Mżawka lub lekki opad śniegu może być niewidoczny dla radaru. Intensywność opadów jest oznaczona kolorami, od jasnoniebieskiego do pomarańczowego.